Queen Of Cowichan — CZ4990 — position and weather

sailwx.info

Track history (hours):
 
Tides and Currents Weather Stations Pressure Air Temp Water Temp Dewpoint Dewpoint Depression Visibility Wind Speed Wind Dir Waves Ship Positions

Queen Of Cowichan

Last reported at 2014-Nov-29 08:12 UTC. Time now 2014-Nov-29 09:51 UTC.
Position N 49°12' W 123°57'.

Length 139 m; draft 5.5 m.

Type: Passenger vessel. MMSI: 316001251.

Date/timePositionNaut miles runAvg speedWind from/ knotsBaromVisibWave heightAir tempDewpointWater temp
2014-Nov-29 08:12N 49°12' W 123°57'0 0.0
2014-Nov-29 07:12N 49°12' W 123°57'1 1.8
2014-Nov-29 06:34N 49°12' W 123°56'2020.3
2014-Nov-29 05:34N 49°19' W 123°26'6 6.1
2014-Nov-29 04:33N 49°22' W 123°18'1919.0
2014-Nov-29 03:33N 49°15' W 123°45'7 7.2
2014-Nov-29 02:33N 49°12' W 123°56'2019.9
2014-Nov-29 01:34N 49°19' W 123°27'8 8.0
2014-Nov-29 00:34N 49°23' W 123°17'1818.4
2014-Nov-28 23:33N 49°15' W 123°42'10 9.5
2014-Nov-28 22:27N 49°12' W 123°57'1517.2
2014-Nov-28 21:34N 49°17' W 123°35'1410.6
2014-Nov-28 20:17N 49°23' W 123°16'1215.9
2014-Nov-28 19:34N 49°17' W 123°31'1817.5
2014-Nov-28 18:33N 49°12' W 123°57'1111.0
2014-Nov-28 17:33N 49°16' W 123°42'1817.8
2014-Nov-28 16:33N 49°23' W 123°16'9 9.2
2014-Nov-28 15:34N 49°18' W 123°28'1919.3
2014-Nov-28 14:34N 49°12' W 123°56'1 0.1
2014-Nov-28 07:08N 49°12' W 123°57'0 0.0
2014-Nov-28 06:23N 49°12' W 123°57'0 0.0
2014-Nov-28 04:20N 49°12' W 123°57'1 0.5
2014-Nov-28 02:34N 49°12' W 123°56'2019.9
2014-Nov-28 01:34N 49°19' W 123°28'8 8.3
2014-Nov-28 00:33N 49°23' W 123°17'1818.5
2014-Nov-27 23:33N 49°15' W 123°42'10 8.0
2014-Nov-27 22:15N 49°12' W 123°57'1217.0
2014-Nov-27 21:33N 49°16' W 123°41'1715.5
2014-Nov-27 20:27N 49°23' W 123°16'910.4
2014-Nov-27 19:33N 49°18' W 123°28'2019.6
2014-Nov-27 18:33N 49°12' W 123°57'9 9.5
2014-Nov-27 17:34N 49°16' W 123°44'1919.1
2014-Nov-27 16:33N 49°23' W 123°17'9 8.6
2014-Nov-27 15:33N 49°18' W 123°27'2019.8
2014-Nov-27 14:33N 49°12' W 123°56'2 0.1
2014-Nov-27 02:33N 49°13' W 123°54'1918.9
2014-Nov-27 01:34N 49°19' W 123°27'8 8.1
2014-Nov-27 00:34N 49°23' W 123°16'1918.9
2014-Nov-26 23:33N 49°15' W 123°43'10 7.5
2014-Nov-26 22:13N 49°12' W 123°57'1219.0
2014-Nov-26 21:33N 49°16' W 123°39'1612.6
2014-Nov-26 20:15N 49°23' W 123°16'1116.4
2014-Nov-26 19:33N 49°17' W 123°32'1813.5
2014-Nov-26 18:15N 49°12' W 123°57'1318.3
2014-Nov-26 17:34N 49°17' W 123°40'1614.7
2014-Nov-26 16:27N 49°23' W 123°16'910.5
2014-Nov-26 15:33N 49°18' W 123°29'19 1.5
2014-Nov-26 02:33N 49°12' W 123°57'2019.7
2014-Nov-26 01:33N 49°19' W 123°28'8 8.3
2014-Nov-26 00:33N 49°23' W 123°17'1919.1
2014-Nov-25 23:33N 49°15' W 123°44'9 7.1
2014-Nov-25 22:14N 49°12' W 123°57'1218.1
2014-Nov-25 21:33N 49°17' W 123°40'1713.1
2014-Nov-25 20:17N 49°23' W 123°16'1116.0
2014-Nov-25 19:33N 49°17' W 123°32'1817.4
2014-Nov-25 18:33N 49°12' W 123°57'1111.2
2014-Nov-25 17:34N 49°16' W 123°42'1813.1
2014-Nov-25 16:12N 49°23' W 123°16'1015.3
2014-Nov-25 15:33N 49°17' W 123°29'19 1.4
2014-Nov-25 02:34N 49°12' W 123°56'2019.9
2014-Nov-25 01:34N 49°19' W 123°27'8 7.8
2014-Nov-25 00:33N 49°23' W 123°18'1918.9
2014-Nov-24 23:33N 49°15' W 123°44'10 7.7
2014-Nov-24 22:19N 49°12' W 123°57'1317.6
2014-Nov-24 21:34N 49°17' W 123°38'1512.5
2014-Nov-24 20:19N 49°23' W 123°16'1114.7
2014-Nov-24 19:34N 49°17' W 123°31'1814.3
2014-Nov-24 18:18N 49°12' W 123°57'1215.6
2014-Nov-24 17:33N 49°16' W 123°41'1716.7
2014-Nov-24 16:31N 49°23' W 123°16'1010.5
2014-Nov-24 15:34N 49°17' W 123°30'1918.4
2014-Nov-24 14:32N 49°12' W 123°57'0 0.1
2014-Nov-24 13:32N 49°12' W 123°57'0 0.0
2014-Nov-24 12:20N 49°12' W 123°57'0 0.0
2014-Nov-24 11:32N 49°12' W 123°57'0 0.0
2014-Nov-24 10:20N 49°12' W 123°57'0 0.0
2014-Nov-24 09:11N 49°12' W 123°57'0 0.0
2014-Nov-24 08:23N 49°12' W 123°57'4 2.4
2014-Nov-24 06:34N 49°14' W 123°52'2020.0
2014-Nov-24 05:34N 49°20' W 123°22'1 1.2
2014-Nov-24 04:34N 49°20' W 123°21'1918.8
2014-Nov-24 03:34N 49°14' W 123°48'4 4.3
2014-Nov-24 02:33N 49°13' W 123°54'2019.9
2014-Nov-24 01:34N 49°19' W 123°25'7 7.2
2014-Nov-24 00:33N 49°23' W 123°16'1918.6
2014-Nov-23 23:34N 49°15' W 123°42'1110.5
2014-Nov-23 22:33N 49°12' W 123°57'1413.9
2014-Nov-23 21:33N 49°17' W 123°38'1511.3
2014-Nov-23 20:13N 49°23' W 123°16'1015.1
2014-Nov-23 19:33N 49°17' W 123°29'1918.7
2014-Nov-23 18:32N 49°12' W 123°57'1010.2
2014-Nov-23 17:33N 49°16' W 123°44'1919.1
2014-Nov-23 16:33N 49°23' W 123°17'9 9.4
2014-Nov-23 15:33N 49°18' W 123°29'2019.6
2014-Nov-23 14:33N 49°12' W 123°57'0 0.2
2014-Nov-23 12:29N 49°12' W 123°57'0 0.0
2014-Nov-23 11:32N 49°12' W 123°57'0 0.0
2014-Nov-23 07:29N 49°12' W 123°57'2 2.2
2014-Nov-23 06:33N 49°13' W 123°55'2020.3
2014-Nov-23 05:34N 49°19' W 123°25'4 4.2
2014-Nov-23 04:34N 49°21' W 123°20'1919.0
2014-Nov-23 03:33N 49°14' W 123°47'5 4.7
2014-Nov-23 02:33N 49°13' W 123°54'2020.4
2014-Nov-23 01:34N 49°19' W 123°24'6 6.3
2014-Nov-23 00:33N 49°23' W 123°17'1919.0
2014-Nov-22 23:34N 49°15' W 123°43'10 9.8
2014-Nov-22 22:33N 49°12' W 123°57'1312.8
2014-Nov-22 21:34N 49°17' W 123°40'1612.0
2014-Nov-22 20:11N 49°23' W 123°16'1016.0
2014-Nov-22 19:34N 49°17' W 123°30'1918.9
2014-Nov-22 18:33N 49°12' W 123°57'10 9.8
2014-Nov-22 17:33N 49°16' W 123°44'1919.3
2014-Nov-22 16:34N 49°23' W 123°17'9 9.1
2014-Nov-22 15:33N 49°18' W 123°28'2019.8
2014-Nov-22 14:34N 49°12' W 123°57'1 0.5
2014-Nov-22 13:25N 49°12' W 123°57'0 0.0
2014-Nov-22 12:19N 49°12' W 123°57'0 0.0
2014-Nov-22 11:31N 49°12' W 123°57'0 0.0
2014-Nov-22 08:13N 49°12' W 123°57'3 1.5
2014-Nov-22 06:33N 49°13' W 123°54'2020.0
2014-Nov-22 05:34N 49°19' W 123°25'3 3.3
2014-Nov-22 04:33N 49°20' W 123°20'2019.6
2014-Nov-22 03:34N 49°14' W 123°49'3 2.9
2014-Nov-22 02:33N 49°14' W 123°53'2020.0
2014-Nov-22 01:34N 49°19' W 123°24'6 5.6
2014-Nov-22 00:34N 49°23' W 123°17'1919.1
2014-Nov-21 23:34N 49°15' W 123°44'9 8.3
2014-Nov-21 22:27N 49°12' W 123°57'1719.3
2014-Nov-21 21:33N 49°18' W 123°33'12 9.5
2014-Nov-21 20:19N 49°23' W 123°16'1114.4
2014-Nov-21 19:33N 49°17' W 123°31'1817.4
2014-Nov-21 18:32N 49°12' W 123°57'1010.3
2014-Nov-21 17:33N 49°16' W 123°43'1919.0
2014-Nov-21 16:34N 49°23' W 123°17'9 8.6
2014-Nov-21 15:33N 49°18' W 123°27'2019.8
2014-Nov-21 14:34N 49°12' W 123°56'1 0.1
2014-Nov-21 05:25N 49°12' W 123°57'0 0.0
2014-Nov-21 03:13N 49°12' W 123°57'2 3.1
2014-Nov-21 02:34N 49°13' W 123°55'1919.5
2014-Nov-21 01:34N 49°19' W 123°27'8 7.6
2014-Nov-21 00:33N 49°23' W 123°17'1918.9
2014-Nov-20 23:34N 49°16' W 123°43'1010.1
2014-Nov-20 22:33N 49°12' W 123°57'1313.5
2014-Nov-20 21:34N 49°17' W 123°38'1611.3
2014-Nov-20 20:11N 49°23' W 123°16'1117.2
2014-Nov-20 19:34N 49°17' W 123°31'1812.5
2014-Nov-20 18:05N 49°12' W 123°57'1018.4
2014-Nov-20 17:33N 49°16' W 123°44'1919.2
2014-Nov-20 16:33N 49°23' W 123°17'9 8.7
2014-Nov-20 15:33N 49°18' W 123°28'2019.8
2014-Nov-20 14:34N 49°12' W 123°57'1 0.1
2014-Nov-20 08:22N 49°12' W 123°57'0 0.0
2014-Nov-20 07:16N 49°12' W 123°57'0 0.0
2014-Nov-20 05:28N 49°12' W 123°57'0 0.0
2014-Nov-20 04:16N 49°12' W 123°57'2 1.0
2014-Nov-20 02:33N 49°13' W 123°55'1919.6
2014-Nov-20 01:33N 49°18' W 123°27'8 8.4
2014-Nov-20 00:34N 49°23' W 123°16'1818.4
2014-Nov-19 23:33N 49°15' W 123°42'1110.5
2014-Nov-19 22:33N 49°12' W 123°57'1010.3
2014-Nov-19 21:33N 49°16' W 123°43'1918.8
2014-Nov-19 20:33N 49°23' W 123°16'9 9.4
2014-Nov-19 19:33N 49°18' W 123°28'2019.7
2014-Nov-19 18:34N 49°12' W 123°57'9 9.5
2014-Nov-19 17:33N 49°16' W 123°44'1919.1
2014-Nov-19 16:33N 49°23' W 123°17'9 8.9
2014-Nov-19 15:33N 49°18' W 123°27'2019.8
2014-Nov-19 14:34N 49°12' W 123°57'1 0.3
2014-Nov-19 11:16N 49°12' W 123°57'0 0.0
2014-Nov-19 08:28N 49°12' W 123°57'  
Track history (hours):
 
Tides and Currents Weather Stations Pressure Air Temp Water Temp Dewpoint Dewpoint Depression Visibility Wind Speed Wind Dir Waves Ship Positions

Queen Of Cowichan

Last reported at 2014-Nov-29 08:12 UTC. Time now 2014-Nov-29 09:51 UTC.
Position N 49°12' W 123°57'.

Length 139 m; draft 5.5 m.

Type: Passenger vessel. MMSI: 316001251.

Date/timePositionNaut miles runAvg speedWind from/ knotsBaromVisibWave heightAir tempDewpointWater temp
2014-Nov-29 08:12N 49°12' W 123°57'0 0.0
2014-Nov-29 07:12N 49°12' W 123°57'1 1.8
2014-Nov-29 06:34N 49°12' W 123°56'2020.3
2014-Nov-29 05:34N 49°19' W 123°26'6 6.1
2014-Nov-29 04:33N 49°22' W 123°18'1919.0
2014-Nov-29 03:33N 49°15' W 123°45'7 7.2
2014-Nov-29 02:33N 49°12' W 123°56'2019.9
2014-Nov-29 01:34N 49°19' W 123°27'8 8.0
2014-Nov-29 00:34N 49°23' W 123°17'1818.4
2014-Nov-28 23:33N 49°15' W 123°42'10 9.5
2014-Nov-28 22:27N 49°12' W 123°57'1517.2
2014-Nov-28 21:34N 49°17' W 123°35'1410.6
2014-Nov-28 20:17N 49°23' W 123°16'1215.9
2014-Nov-28 19:34N 49°17' W 123°31'1817.5
2014-Nov-28 18:33N 49°12' W 123°57'1111.0
2014-Nov-28 17:33N 49°16' W 123°42'1817.8
2014-Nov-28 16:33N 49°23' W 123°16'9 9.2
2014-Nov-28 15:34N 49°18' W 123°28'1919.3
2014-Nov-28 14:34N 49°12' W 123°56'1 0.1
2014-Nov-28 07:08N 49°12' W 123°57'0 0.0
2014-Nov-28 06:23N 49°12' W 123°57'0 0.0
2014-Nov-28 04:20N 49°12' W 123°57'1 0.5
2014-Nov-28 02:34N 49°12' W 123°56'2019.9
2014-Nov-28 01:34N 49°19' W 123°28'8 8.3
2014-Nov-28 00:33N 49°23' W 123°17'1818.5
2014-Nov-27 23:33N 49°15' W 123°42'10 8.0
2014-Nov-27 22:15N 49°12' W 123°57'1217.0
2014-Nov-27 21:33N 49°16' W 123°41'1715.5
2014-Nov-27 20:27N 49°23' W 123°16'910.4
2014-Nov-27 19:33N 49°18' W 123°28'2019.6
2014-Nov-27 18:33N 49°12' W 123°57'9 9.5
2014-Nov-27 17:34N 49°16' W 123°44'1919.1
2014-Nov-27 16:33N 49°23' W 123°17'9 8.6
2014-Nov-27 15:33N 49°18' W 123°27'2019.8
2014-Nov-27 14:33N 49°12' W 123°56'2 0.1
2014-Nov-27 02:33N 49°13' W 123°54'1918.9
2014-Nov-27 01:34N 49°19' W 123°27'8 8.1
2014-Nov-27 00:34N 49°23' W 123°16'1918.9
2014-Nov-26 23:33N 49°15' W 123°43'10 7.5
2014-Nov-26 22:13N 49°12' W 123°57'1219.0
2014-Nov-26 21:33N 49°16' W 123°39'1612.6
2014-Nov-26 20:15N 49°23' W 123°16'1116.4
2014-Nov-26 19:33N 49°17' W 123°32'1813.5
2014-Nov-26 18:15N 49°12' W 123°57'1318.3
2014-Nov-26 17:34N 49°17' W 123°40'1614.7
2014-Nov-26 16:27N 49°23' W 123°16'910.5
2014-Nov-26 15:33N 49°18' W 123°29'19 1.5
2014-Nov-26 02:33N 49°12' W 123°57'2019.7
2014-Nov-26 01:33N 49°19' W 123°28'8 8.3
2014-Nov-26 00:33N 49°23' W 123°17'1919.1
2014-Nov-25 23:33N 49°15' W 123°44'9 7.1
2014-Nov-25 22:14N 49°12' W 123°57'1218.1
2014-Nov-25 21:33N 49°17' W 123°40'1713.1
2014-Nov-25 20:17N 49°23' W 123°16'1116.0
2014-Nov-25 19:33N 49°17' W 123°32'1817.4
2014-Nov-25 18:33N 49°12' W 123°57'1111.2
2014-Nov-25 17:34N 49°16' W 123°42'1813.1
2014-Nov-25 16:12N 49°23' W 123°16'1015.3
2014-Nov-25 15:33N 49°17' W 123°29'19 1.4
2014-Nov-25 02:34N 49°12' W 123°56'2019.9
2014-Nov-25 01:34N 49°19' W 123°27'8 7.8
2014-Nov-25 00:33N 49°23' W 123°18'1918.9
2014-Nov-24 23:33N 49°15' W 123°44'10 7.7
2014-Nov-24 22:19N 49°12' W 123°57'1317.6
2014-Nov-24 21:34N 49°17' W 123°38'1512.5
2014-Nov-24 20:19N 49°23' W 123°16'1114.7
2014-Nov-24 19:34N 49°17' W 123°31'1814.3
2014-Nov-24 18:18N 49°12' W 123°57'1215.6
2014-Nov-24 17:33N 49°16' W 123°41'1716.7
2014-Nov-24 16:31N 49°23' W 123°16'1010.5
2014-Nov-24 15:34N 49°17' W 123°30'1918.4
2014-Nov-24 14:32N 49°12' W 123°57'0 0.1
2014-Nov-24 13:32N 49°12' W 123°57'0 0.0
2014-Nov-24 12:20N 49°12' W 123°57'0 0.0
2014-Nov-24 11:32N 49°12' W 123°57'0 0.0
2014-Nov-24 10:20N 49°12' W 123°57'0 0.0
2014-Nov-24 09:11N 49°12' W 123°57'0 0.0
2014-Nov-24 08:23N 49°12' W 123°57'4 2.4
2014-Nov-24 06:34N 49°14' W 123°52'2020.0
2014-Nov-24 05:34N 49°20' W 123°22'1 1.2
2014-Nov-24 04:34N 49°20' W 123°21'1918.8
2014-Nov-24 03:34N 49°14' W 123°48'4 4.3
2014-Nov-24 02:33N 49°13' W 123°54'2019.9
2014-Nov-24 01:34N 49°19' W 123°25'7 7.2
2014-Nov-24 00:33N 49°23' W 123°16'1918.6
2014-Nov-23 23:34N 49°15' W 123°42'1110.5
2014-Nov-23 22:33N 49°12' W 123°57'1413.9
2014-Nov-23 21:33N 49°17' W 123°38'1511.3
2014-Nov-23 20:13N 49°23' W 123°16'1015.1
2014-Nov-23 19:33N 49°17' W 123°29'1918.7
2014-Nov-23 18:32N 49°12' W 123°57'1010.2
2014-Nov-23 17:33N 49°16' W 123°44'1919.1
2014-Nov-23 16:33N 49°23' W 123°17'9 9.4
2014-Nov-23 15:33N 49°18' W 123°29'2019.6
2014-Nov-23 14:33N 49°12' W 123°57'0 0.2
2014-Nov-23 12:29N 49°12' W 123°57'0 0.0
2014-Nov-23 11:32N 49°12' W 123°57'0 0.0
2014-Nov-23 07:29N 49°12' W 123°57'2 2.2
2014-Nov-23 06:33N 49°13' W 123°55'2020.3
2014-Nov-23 05:34N 49°19' W 123°25'4 4.2
2014-Nov-23 04:34N 49°21' W 123°20'1919.0
2014-Nov-23 03:33N 49°14' W 123°47'5 4.7
2014-Nov-23 02:33N 49°13' W 123°54'2020.4
2014-Nov-23 01:34N 49°19' W 123°24'6 6.3
2014-Nov-23 00:33N 49°23' W 123°17'1919.0
2014-Nov-22 23:34N 49°15' W 123°43'10 9.8
2014-Nov-22 22:33N 49°12' W 123°57'1312.8
2014-Nov-22 21:34N 49°17' W 123°40'1612.0
2014-Nov-22 20:11N 49°23' W 123°16'1016.0
2014-Nov-22 19:34N 49°17' W 123°30'1918.9
2014-Nov-22 18:33N 49°12' W 123°57'10 9.8
2014-Nov-22 17:33N 49°16' W 123°44'1919.3
2014-Nov-22 16:34N 49°23' W 123°17'9 9.1
2014-Nov-22 15:33N 49°18' W 123°28'2019.8
2014-Nov-22 14:34N 49°12' W 123°57'1 0.5
2014-Nov-22 13:25N 49°12' W 123°57'0 0.0
2014-Nov-22 12:19N 49°12' W 123°57'0 0.0
2014-Nov-22 11:31N 49°12' W 123°57'0 0.0
2014-Nov-22 08:13N 49°12' W 123°57'3 1.5
2014-Nov-22 06:33N 49°13' W 123°54'2020.0
2014-Nov-22 05:34N 49°19' W 123°25'3 3.3
2014-Nov-22 04:33N 49°20' W 123°20'2019.6
2014-Nov-22 03:34N 49°14' W 123°49'3 2.9
2014-Nov-22 02:33N 49°14' W 123°53'2020.0
2014-Nov-22 01:34N 49°19' W 123°24'6 5.6
2014-Nov-22 00:34N 49°23' W 123°17'1919.1
2014-Nov-21 23:34N 49°15' W 123°44'9 8.3
2014-Nov-21 22:27N 49°12' W 123°57'1719.3
2014-Nov-21 21:33N 49°18' W 123°33'12 9.5
2014-Nov-21 20:19N 49°23' W 123°16'1114.4
2014-Nov-21 19:33N 49°17' W 123°31'1817.4
2014-Nov-21 18:32N 49°12' W 123°57'1010.3
2014-Nov-21 17:33N 49°16' W 123°43'1919.0
2014-Nov-21 16:34N 49°23' W 123°17'9 8.6
2014-Nov-21 15:33N 49°18' W 123°27'2019.8
2014-Nov-21 14:34N 49°12' W 123°56'1 0.1
2014-Nov-21 05:25N 49°12' W 123°57'0 0.0
2014-Nov-21 03:13N 49°12' W 123°57'2 3.1
2014-Nov-21 02:34N 49°13' W 123°55'1919.5
2014-Nov-21 01:34N 49°19' W 123°27'8 7.6
2014-Nov-21 00:33N 49°23' W 123°17'1918.9
2014-Nov-20 23:34N 49°16' W 123°43'1010.1
2014-Nov-20 22:33N 49°12' W 123°57'1313.5
2014-Nov-20 21:34N 49°17' W 123°38'1611.3
2014-Nov-20 20:11N 49°23' W 123°16'1117.2
2014-Nov-20 19:34N 49°17' W 123°31'1812.5
2014-Nov-20 18:05N 49°12' W 123°57'1018.4
2014-Nov-20 17:33N 49°16' W 123°44'1919.2
2014-Nov-20 16:33N 49°23' W 123°17'9 8.7
2014-Nov-20 15:33N 49°18' W 123°28'2019.8
2014-Nov-20 14:34N 49°12' W 123°57'1 0.1
2014-Nov-20 08:22N 49°12' W 123°57'0 0.0
2014-Nov-20 07:16N 49°12' W 123°57'0 0.0
2014-Nov-20 05:28N 49°12' W 123°57'0 0.0
2014-Nov-20 04:16N 49°12' W 123°57'2 1.0
2014-Nov-20 02:33N 49°13' W 123°55'1919.6
2014-Nov-20 01:33N 49°18' W 123°27'8 8.4
2014-Nov-20 00:34N 49°23' W 123°16'1818.4
2014-Nov-19 23:33N 49°15' W 123°42'1110.5
2014-Nov-19 22:33N 49°12' W 123°57'1010.3
2014-Nov-19 21:33N 49°16' W 123°43'1918.8
2014-Nov-19 20:33N 49°23' W 123°16'9 9.4
2014-Nov-19 19:33N 49°18' W 123°28'2019.7
2014-Nov-19 18:34N 49°12' W 123°57'9 9.5
2014-Nov-19 17:33N 49°16' W 123°44'1919.1
2014-Nov-19 16:33N 49°23' W 123°17'9 8.9
2014-Nov-19 15:33N 49°18' W 123°27'2019.8
2014-Nov-19 14:34N 49°12' W 123°57'1 0.3
2014-Nov-19 11:16N 49°12' W 123°57'0 0.0
2014-Nov-19 08:28N 49°12' W 123°57'  

Dump ship's entire track history